createdAt,value
2022-08-09T00:02:34.140Z,55.46
2022-08-09T00:07:44.931Z,56.20
2022-08-09T00:12:51.634Z,56.81
2022-08-09T00:18:07.647Z,55.83
2022-08-09T00:23:55.460Z,55.95
2022-08-09T00:28:52.687Z,56.43
2022-08-09T00:33:57.970Z,56.78
2022-08-09T00:39:02.453Z,56.37
2022-08-09T00:44:15.598Z,56.25
2022-08-09T00:49:28.739Z,56.65
2022-08-09T00:54:37.786Z,56.41
2022-08-09T00:59:52.283Z,56.35
2022-08-09T01:05:53.860Z,56.17
2022-08-09T01:11:30.946Z,56.58
2022-08-09T01:16:47.485Z,56.76
2022-08-09T01:22:12.411Z,58.02
2022-08-09T01:27:25.019Z,56.26
2022-08-09T01:32:45.267Z,57.03
2022-08-09T01:38:08.402Z,56.59
2022-08-09T01:43:17.657Z,56.76
2022-08-09T01:48:31.394Z,57.09
2022-08-09T01:53:41.456Z,55.91
2022-08-09T01:58:49.053Z,55.89
2022-08-09T02:04:06.880Z,56.71
2022-08-09T02:09:14.084Z,57.11
2022-08-09T02:14:25.584Z,57.48
2022-08-09T02:19:34.943Z,57.13
2022-08-09T02:24:51.843Z,56.61
2022-08-09T02:29:59.033Z,57.54
2022-08-09T02:35:17.472Z,57.78
2022-08-09T02:40:24.824Z,57.44
2022-08-09T02:45:34.236Z,57.81
2022-08-09T02:50:44.542Z,57.57
2022-08-09T02:55:58.597Z,57.22
2022-08-09T03:01:08.254Z,57.33
2022-08-09T03:06:15.181Z,57.37
2022-08-09T03:12:04.312Z,58.23
2022-08-09T03:16:48.490Z,57.92
2022-08-09T03:21:52.870Z,57.77
2022-08-09T03:26:56.374Z,57.83
2022-08-09T03:32:00.680Z,57.87
2022-08-09T03:42:26.190Z,58.06
2022-08-09T03:47:42.036Z,58.21
2022-08-09T03:52:49.614Z,58.53
2022-08-09T03:58:06.657Z,58.28
2022-08-09T04:03:35.321Z,57.87
2022-08-09T04:08:42.259Z,58.23
2022-08-09T04:14:53.172Z,58.35
2022-08-09T04:19:30.057Z,57.65
2022-08-09T04:24:40.961Z,57.67
2022-08-09T04:29:49.526Z,57.25
2022-08-09T04:34:57.456Z,57.23
2022-08-09T04:40:03.529Z,56.92
2022-08-09T04:45:10.724Z,55.85
2022-08-09T04:50:17.064Z,55.95
2022-08-09T04:55:27.980Z,55.58
2022-08-09T05:00:43.865Z,55.79
2022-08-09T05:05:52.419Z,55.64
2022-08-09T05:11:09.141Z,55.68
2022-08-09T05:16:17.218Z,55.01
2022-08-09T05:21:24.391Z,54.49
2022-08-09T05:33:53.790Z,40.81
2022-08-09T05:38:57.337Z,38.33
2022-08-09T05:43:59.867Z,34.71
2022-08-09T05:49:02.454Z,32.90
2022-08-09T05:54:09.864Z,32.91
2022-08-09T05:59:15.162Z,31.38
2022-08-09T06:04:23.323Z,30.13
2022-08-09T06:09:54.880Z,31.49
2022-08-09T06:14:50.709Z,31.53
2022-08-09T06:19:53.328Z,31.83
2022-08-09T06:24:58.645Z,31.15
2022-08-09T06:30:09.903Z,31.55
2022-08-09T06:35:13.518Z,31.35
2022-08-09T06:40:30.063Z,30.84
2022-08-09T06:46:08.100Z,30.20
2022-08-09T06:51:00.255Z,29.62
2022-08-09T06:56:11.889Z,29.76
2022-08-09T07:01:15.369Z,30.07
2022-08-09T07:06:21.173Z,29.29
2022-08-09T07:11:28.574Z,30.44
2022-08-09T07:16:55.325Z,30.62
2022-08-09T07:22:00.662Z,30.03
2022-08-09T07:27:21.051Z,31.62
2022-08-09T07:32:34.722Z,32.01
2022-08-09T07:37:42.966Z,31.33
2022-08-09T07:42:57.159Z,31.44
2022-08-09T07:48:04.651Z,32.20
2022-08-09T07:53:12.247Z,32.27
2022-08-09T07:58:21.584Z,34.09
2022-08-09T08:03:28.503Z,33.00
2022-08-09T08:08:59.642Z,34.33
2022-08-09T08:14:01.567Z,32.24
2022-08-09T08:24:19.867Z,31.80
2022-08-09T08:29:27.991Z,32.16
2022-08-09T08:34:36.307Z,31.92
2022-08-09T08:39:44.180Z,31.94
2022-08-09T08:44:52.043Z,33.25
2022-08-09T08:49:57.949Z,31.28
2022-08-09T08:55:05.474Z,32.00
2022-08-09T09:00:16.853Z,32.82
2022-08-09T09:05:58.670Z,32.63
2022-08-09T09:10:51.894Z,32.52
2022-08-09T09:15:54.327Z,31.29
2022-08-09T09:21:10.807Z,31.41
2022-08-09T09:26:14.155Z,33.46
2022-08-09T09:32:01.635Z,32.30
2022-08-09T09:36:51.210Z,32.61
2022-08-09T09:41:57.252Z,32.48
2022-08-09T09:47:16.490Z,33.33
2022-08-09T09:52:52.513Z,34.65
2022-08-09T09:58:02.347Z,35.80
2022-08-09T10:03:11.592Z,34.86
2022-08-09T10:08:28.012Z,34.82
2022-08-09T10:13:43.100Z,34.56
2022-08-09T10:18:54.392Z,33.66
2022-08-09T10:23:58.979Z,32.23
2022-08-09T10:29:35.974Z,32.66
2022-08-09T10:34:32.688Z,33.99
2022-08-09T10:39:40.531Z,32.20
2022-08-09T10:44:57.568Z,31.90
2022-08-09T10:50:31.475Z,33.37
2022-08-09T10:55:58.735Z,33.61
2022-08-09T11:03:06.654Z,31.50
2022-08-09T11:06:26.301Z,32.06
2022-08-09T11:11:51.770Z,32.12
2022-08-09T11:16:59.487Z,32.58
2022-08-09T11:22:18.638Z,32.62
2022-08-09T11:28:05.589Z,33.30
2022-08-09T11:33:25.503Z,34.25
2022-08-09T11:38:34.897Z,34.28
2022-08-09T11:43:38.885Z,34.72
2022-08-09T11:48:51.054Z,34.57
2022-08-09T11:54:27.540Z,34.29
2022-08-09T11:59:33.623Z,34.30
2022-08-09T12:04:38.991Z,34.88
2022-08-09T12:09:50.482Z,34.85
2022-08-09T12:15:08.356Z,35.11
2022-08-09T12:20:12.638Z,34.84
2022-08-09T12:25:32.017Z,34.73
2022-08-09T12:30:40.503Z,33.68
2022-08-09T12:35:47.902Z,34.92
2022-08-09T12:40:55.752Z,34.43
2022-08-09T12:45:59.470Z,34.46
2022-08-09T12:51:04.933Z,33.65
2022-08-09T12:56:42.870Z,33.87
2022-08-09T13:01:48.981Z,34.69
2022-08-09T13:06:55.074Z,35.61
2022-08-09T13:12:09.327Z,36.91
2022-08-09T13:17:15.922Z,36.83
2022-08-09T13:23:01.468Z,36.33
2022-08-09T13:28:09.587Z,36.28
2022-08-09T13:33:52.923Z,35.91
2022-08-09T13:38:57.994Z,34.35
2022-08-09T13:44:05.450Z,35.08
2022-08-09T13:49:08.018Z,36.32
2022-08-09T13:54:20.888Z,38.08
2022-08-09T13:59:41.533Z,38.30
2022-08-09T14:04:49.415Z,44.45
2022-08-09T14:10:04.716Z,51.13
2022-08-09T14:16:07.194Z,53.15
2022-08-09T14:20:30.571Z,56.40
2022-08-09T14:25:42.931Z,52.82
2022-08-09T14:30:45.498Z,47.24
2022-08-09T14:35:52.031Z,43.29
2022-08-09T14:41:04.463Z,44.58
2022-08-09T14:46:58.195Z,44.58
2022-08-09T14:51:42.378Z,47.75
2022-08-09T14:56:57.380Z,48.86
2022-08-09T15:02:00.678Z,49.29
2022-08-09T15:07:05.090Z,50.06
2022-08-09T15:12:12.501Z,52.98
2022-08-09T15:17:16.990Z,51.78
2022-08-09T15:22:22.242Z,51.87
2022-08-09T15:27:28.582Z,51.86
2022-08-09T15:32:33.752Z,50.01
2022-08-09T15:37:57.477Z,47.86
2022-08-09T15:43:03.835Z,45.28
2022-08-09T15:48:27.899Z,45.43
2022-08-09T15:54:04.879Z,46.32
2022-08-09T15:58:54.206Z,48.11
2022-08-09T16:03:59.248Z,49.21
2022-08-09T16:09:16.944Z,50.23
2022-08-09T16:14:24.082Z,51.77
2022-08-09T16:19:36.521Z,53.37
2022-08-09T16:24:42.299Z,54.63
2022-08-09T16:29:50.009Z,57.90
2022-08-09T16:34:57.947Z,57.27
2022-08-09T16:40:05.428Z,59.31
2022-08-09T16:45:08.438Z,60.87
2022-08-09T16:50:29.072Z,60.71
2022-08-09T16:56:00.344Z,69.03
2022-08-09T17:00:58.304Z,71.64
2022-08-09T17:06:28.418Z,73.10
2022-08-09T17:11:41.547Z,76.24
2022-08-09T17:16:45.055Z,75.61
2022-08-09T17:21:47.310Z,73.38
2022-08-09T17:26:53.345Z,73.00
2022-08-09T17:31:58.240Z,73.98
2022-08-09T17:37:03.204Z,73.14
2022-08-09T17:42:08.579Z,72.21
2022-08-09T17:47:49.762Z,68.43
2022-08-09T17:52:51.962Z,63.07
2022-08-09T17:58:04.049Z,62.54
2022-08-09T18:03:08.102Z,62.02
2022-08-09T18:08:11.172Z,65.13
2022-08-09T18:13:39.046Z,62.11
2022-08-09T18:18:42.884Z,62.46
2022-08-09T18:24:10.036Z,59.66
2022-08-09T18:30:42.021Z,60.27
2022-08-09T18:34:35.666Z,59.19
2022-08-09T18:39:48.485Z,55.15
2022-08-09T18:44:51.074Z,51.97
2022-08-09T18:50:06.192Z,50.91
2022-08-09T18:55:14.039Z,50.73
2022-08-09T19:00:21.237Z,48.81
2022-08-09T19:06:02.226Z,51.05
2022-08-09T19:10:51.824Z,50.71
2022-08-09T19:16:00.782Z,50.12
2022-08-09T19:21:05.501Z,50.52
2022-08-09T19:26:11.740Z,54.76
2022-08-09T19:31:14.795Z,55.70
2022-08-09T19:36:23.291Z,57.00
2022-08-09T19:41:42.548Z,58.96
2022-08-09T19:46:50.546Z,61.19
2022-08-09T19:51:59.680Z,61.62
2022-08-09T19:57:04.732Z,60.05
2022-08-09T20:02:18.157Z,60.57
2022-08-09T20:07:59.812Z,61.88
2022-08-09T20:12:59.123Z,62.68
2022-08-09T20:18:08.374Z,62.50
2022-08-09T20:23:10.844Z,58.88
2022-08-09T20:28:27.672Z,60.66
2022-08-09T20:33:41.168Z,58.97
2022-08-09T20:39:29.095Z,57.91
2022-08-09T20:44:14.756Z,58.62
2022-08-09T20:49:19.800Z,58.79
2022-08-09T20:54:22.281Z,58.67
2022-08-09T20:59:50.309Z,57.79
2022-08-09T21:05:51.660Z,57.07
2022-08-09T21:10:19.289Z,55.69
2022-08-09T21:15:34.156Z,56.37
2022-08-09T21:20:37.557Z,58.09
2022-08-09T21:25:55.871Z,58.74
2022-08-09T21:31:18.181Z,57.95
2022-08-09T21:36:27.809Z,58.48
2022-08-09T21:42:05.774Z,58.72
2022-08-09T21:46:55.205Z,59.51
2022-08-09T21:52:07.070Z,60.83
2022-08-09T21:57:37.019Z,61.96
2022-08-09T22:02:42.881Z,61.70
2022-08-09T22:07:52.971Z,59.89
2022-08-09T22:13:07.452Z,54.54
2022-08-09T22:18:14.011Z,50.21
2022-08-09T22:23:35.065Z,49.64
2022-08-09T22:28:47.274Z,48.65
2022-08-09T22:33:56.728Z,49.40
2022-08-09T22:38:59.115Z,47.07
2022-08-09T22:44:04.352Z,47.22
2022-08-09T22:49:09.677Z,47.36
2022-08-09T22:54:16.653Z,47.50
2022-08-09T22:59:55.885Z,48.49
2022-08-09T23:04:54.101Z,49.01
2022-08-09T23:09:56.858Z,49.64
2022-08-09T23:14:59.193Z,49.37
2022-08-09T23:20:07.147Z,49.42
2022-08-09T23:25:11.193Z,49.56
2022-08-09T23:30:19.794Z,49.13
2022-08-09T23:35:22.132Z,48.85
2022-08-09T23:40:24.458Z,48.72
2022-08-09T23:45:36.951Z,48.24
2022-08-09T23:50:41.014Z,49.00
2022-08-09T23:55:49.753Z,49.68
